sensor_id;sensor_type;location;lat;lon;timestamp;temperature;humidity
18880;DHT22;9572;52.378;13.404;2023-05-08T00:01:39;7.90;99.90
18880;DHT22;9572;52.378;13.404;2023-05-08T00:04:06;7.80;99.90
18880;DHT22;9572;52.378;13.404;2023-05-08T00:06:33;7.80;99.90
18880;DHT22;9572;52.378;13.404;2023-05-08T00:09:01;7.70;99.90
18880;DHT22;9572;52.378;13.404;2023-05-08T00:11:28;7.70;99.90
18880;DHT22;9572;52.378;13.404;2023-05-08T00:13:55;7.70;99.90
18880;DHT22;9572;52.378;13.404;2023-05-08T00:16:22;7.70;99.90
18880;DHT22;9572;52.378;13.404;2023-05-08T00:18:49;7.60;99.90
18880;DHT22;9572;52.378;13.404;2023-05-08T00:21:18;7.60;99.90
18880;DHT22;9572;52.378;13.404;2023-05-08T00:23:44;7.60;99.90
18880;DHT22;9572;52.378;13.404;2023-05-08T00:26:13;7.60;99.90
18880;DHT22;9572;52.378;13.404;2023-05-08T00:28:40;7.60;99.90
18880;DHT22;9572;52.378;13.404;2023-05-08T00:31:06;7.50;99.90
18880;DHT22;9572;52.378;13.404;2023-05-08T00:33:33;7.50;99.90
18880;DHT22;9572;52.378;13.404;2023-05-08T00:36:01;7.50;99.90
18880;DHT22;9572;52.378;13.404;2023-05-08T00:38:29;7.40;99.90
18880;DHT22;9572;52.378;13.404;2023-05-08T00:40:56;7.30;99.90
18880;DHT22;9572;52.378;13.404;2023-05-08T00:43:25;7.30;99.90
18880;DHT22;9572;52.378;13.404;2023-05-08T00:45:54;7.30;99.90
18880;DHT22;9572;52.378;13.404;2023-05-08T00:48:21;7.20;99.90
18880;DHT22;9572;52.378;13.404;2023-05-08T00:50:49;7.20;99.90
18880;DHT22;9572;52.378;13.404;2023-05-08T00:53:16;7.10;99.90
18880;DHT22;9572;52.378;13.404;2023-05-08T00:55:45;7.20;99.90
18880;DHT22;9572;52.378;13.404;2023-05-08T00:58:12;7.10;99.90
18880;DHT22;9572;52.378;13.404;2023-05-08T01:00:43;7.10;99.90
18880;DHT22;9572;52.378;13.404;2023-05-08T01:03:11;7.10;99.90
18880;DHT22;9572;52.378;13.404;2023-05-08T01:05:39;7.10;99.90
18880;DHT22;9572;52.378;13.404;2023-05-08T01:08:06;7.00;99.90
18880;DHT22;9572;52.378;13.404;2023-05-08T01:10:41;7.00;99.90
18880;DHT22;9572;52.378;13.404;2023-05-08T01:13:17;6.90;99.90
18880;DHT22;9572;52.378;13.404;2023-05-08T01:15:50;6.90;99.90
18880;DHT22;9572;52.378;13.404;2023-05-08T01:18:28;6.90;99.90
18880;DHT22;9572;52.378;13.404;2023-05-08T01:21:04;6.80;99.90
18880;DHT22;9572;52.378;13.404;2023-05-08T01:27:24;6.80;99.90
18880;DHT22;9572;52.378;13.404;2023-05-08T01:33:17;6.80;99.90
18880;DHT22;9572;52.378;13.404;2023-05-08T01:35:49;6.80;99.90
18880;DHT22;9572;52.378;13.404;2023-05-08T01:38:25;6.70;99.90
18880;DHT22;9572;52.378;13.404;2023-05-08T01:40:58;6.70;99.90
18880;DHT22;9572;52.378;13.404;2023-05-08T01:43:32;6.70;99.90
18880;DHT22;9572;52.378;13.404;2023-05-08T01:46:04;6.60;99.90
18880;DHT22;9572;52.378;13.404;2023-05-08T01:48:35;6.60;99.90
18880;DHT22;9572;52.378;13.404;2023-05-08T01:51:07;6.60;99.90
18880;DHT22;9572;52.378;13.404;2023-05-08T01:53:37;6.60;99.90
18880;DHT22;9572;52.378;13.404;2023-05-08T01:56:10;6.60;99.90
18880;DHT22;9572;52.378;13.404;2023-05-08T01:58:38;6.50;99.90
18880;DHT22;9572;52.378;13.404;2023-05-08T02:01:05;6.40;99.90
18880;DHT22;9572;52.378;13.404;2023-05-08T02:03:35;6.50;99.90
18880;DHT22;9572;52.378;13.404;2023-05-08T02:06:03;6.40;99.90
18880;DHT22;9572;52.378;13.404;2023-05-08T02:08:31;6.50;99.90
18880;DHT22;9572;52.378;13.404;2023-05-08T02:10:59;6.40;99.90
18880;DHT22;9572;52.378;13.404;2023-05-08T02:13:29;6.40;99.90
18880;DHT22;9572;52.378;13.404;2023-05-08T02:15:58;6.40;99.90
18880;DHT22;9572;52.378;13.404;2023-05-08T02:18:27;6.30;99.90
18880;DHT22;9572;52.378;13.404;2023-05-08T02:20:58;6.30;99.90
18880;DHT22;9572;52.378;13.404;2023-05-08T02:23:26;6.30;99.90
18880;DHT22;9572;52.378;13.404;2023-05-08T02:25:55;6.20;99.90
18880;DHT22;9572;52.378;13.404;2023-05-08T02:28:23;6.20;99.90
18880;DHT22;9572;52.378;13.404;2023-05-08T02:30:50;6.10;99.90
18880;DHT22;9572;52.378;13.404;2023-05-08T02:33:18;6.10;99.90
18880;DHT22;9572;52.378;13.404;2023-05-08T02:35:47;6.20;99.90
18880;DHT22;9572;52.378;13.404;2023-05-08T02:38:17;6.20;99.90
18880;DHT22;9572;52.378;13.404;2023-05-08T02:40:47;6.20;99.90
18880;DHT22;9572;52.378;13.404;2023-05-08T02:43:15;6.20;99.90
18880;DHT22;9572;52.378;13.404;2023-05-08T02:45:47;6.10;99.90
18880;DHT22;9572;52.378;13.404;2023-05-08T02:48:21;6.20;99.90
18880;DHT22;9572;52.378;13.404;2023-05-08T02:50:56;6.20;99.90
18880;DHT22;9572;52.378;13.404;2023-05-08T02:53:33;6.10;99.90
18880;DHT22;9572;52.378;13.404;2023-05-08T02:56:06;6.10;99.90
18880;DHT22;9572;52.378;13.404;2023-05-08T02:58:41;6.00;99.90
18880;DHT22;9572;52.378;13.404;2023-05-08T03:01:16;6.00;99.90
18880;DHT22;9572;52.378;13.404;2023-05-08T03:03:52;5.90;99.90
18880;DHT22;9572;52.378;13.404;2023-05-08T03:06:23;5.90;99.90
18880;DHT22;9572;52.378;13.404;2023-05-08T03:08:56;5.90;99.90
18880;DHT22;9572;52.378;13.404;2023-05-08T03:11:36;5.90;99.90
18880;DHT22;9572;52.378;13.404;2023-05-08T03:14:07;5.90;99.90
18880;DHT22;9572;52.378;13.404;2023-05-08T03:16:36;5.90;99.90
18880;DHT22;9572;52.378;13.404;2023-05-08T03:19:06;5.90;99.90
18880;DHT22;9572;52.378;13.404;2023-05-08T03:21:37;5.90;99.90
18880;DHT22;9572;52.378;13.404;2023-05-08T03:24:08;5.90;99.90
18880;DHT22;9572;52.378;13.404;2023-05-08T03:26:36;5.90;99.90
18880;DHT22;9572;52.378;13.404;2023-05-08T03:29:04;5.90;99.90
18880;DHT22;9572;52.378;13.404;2023-05-08T03:31:32;5.80;99.90
18880;DHT22;9572;52.378;13.404;2023-05-08T03:34:00;5.80;99.90
18880;DHT22;9572;52.378;13.404;2023-05-08T03:36:28;5.80;99.90
18880;DHT22;9572;52.378;13.404;2023-05-08T03:38:56;5.80;99.90
18880;DHT22;9572;52.378;13.404;2023-05-08T03:41:24;5.80;99.90
18880;DHT22;9572;52.378;13.404;2023-05-08T03:43:51;5.80;99.90
18880;DHT22;9572;52.378;13.404;2023-05-08T03:46:19;5.70;99.90
18880;DHT22;9572;52.378;13.404;2023-05-08T03:48:48;5.80;99.90
18880;DHT22;9572;52.378;13.404;2023-05-08T03:51:17;5.70;99.90
18880;DHT22;9572;52.378;13.404;2023-05-08T03:53:44;5.70;99.90
18880;DHT22;9572;52.378;13.404;2023-05-08T03:56:11;5.80;99.90
18880;DHT22;9572;52.378;13.404;2023-05-08T03:58:43;5.70;99.90
18880;DHT22;9572;52.378;13.404;2023-05-08T04:01:20;5.70;99.90
18880;DHT22;9572;52.378;13.404;2023-05-08T04:03:57;5.80;99.90
18880;DHT22;9572;52.378;13.404;2023-05-08T04:06:28;5.80;99.90
18880;DHT22;9572;52.378;13.404;2023-05-08T04:09:04;5.80;99.90
18880;DHT22;9572;52.378;13.404;2023-05-08T04:11:40;5.80;99.90
18880;DHT22;9572;52.378;13.404;2023-05-08T04:14:13;5.80;99.90
18880;DHT22;9572;52.378;13.404;2023-05-08T04:16:47;5.80;99.90
18880;DHT22;9572;52.378;13.404;2023-05-08T04:19:18;5.90;99.90
18880;DHT22;9572;52.378;13.404;2023-05-08T04:21:46;5.90;99.90
18880;DHT22;9572;52.378;13.404;2023-05-08T04:24:14;5.90;99.90
18880;DHT22;9572;52.378;13.404;2023-05-08T04:26:43;5.90;99.90
18880;DHT22;9572;52.378;13.404;2023-05-08T04:29:13;6.00;99.90
18880;DHT22;9572;52.378;13.404;2023-05-08T04:31:40;6.00;99.90
18880;DHT22;9572;52.378;13.404;2023-05-08T04:34:08;6.10;99.90
18880;DHT22;9572;52.378;13.404;2023-05-08T04:36:35;6.10;99.90
18880;DHT22;9572;52.378;13.404;2023-05-08T04:39:02;6.10;99.90
18880;DHT22;9572;52.378;13.404;2023-05-08T04:41:29;6.10;99.90
18880;DHT22;9572;52.378;13.404;2023-05-08T04:43:56;6.20;99.90
18880;DHT22;9572;52.378;13.404;2023-05-08T04:46:25;6.20;99.90
18880;DHT22;9572;52.378;13.404;2023-05-08T04:48:52;6.20;99.90
18880;DHT22;9572;52.378;13.404;2023-05-08T04:51:19;6.30;99.90
18880;DHT22;9572;52.378;13.404;2023-05-08T04:53:45;6.40;99.90
18880;DHT22;9572;52.378;13.404;2023-05-08T04:56:12;6.40;99.90
18880;DHT22;9572;52.378;13.404;2023-05-08T04:58:39;6.40;99.90
18880;DHT22;9572;52.378;13.404;2023-05-08T05:01:07;6.40;99.90
18880;DHT22;9572;52.378;13.404;2023-05-08T05:03:36;6.50;99.90
18880;DHT22;9572;52.378;13.404;2023-05-08T05:06:03;6.50;99.90
18880;DHT22;9572;52.378;13.404;2023-05-08T05:08:30;6.60;99.90
18880;DHT22;9572;52.378;13.404;2023-05-08T05:10:57;6.70;99.90
18880;DHT22;9572;52.378;13.404;2023-05-08T05:13:24;6.70;99.90
18880;DHT22;9572;52.378;13.404;2023-05-08T05:15:51;6.90;99.90
18880;DHT22;9572;52.378;13.404;2023-05-08T05:18:19;6.90;99.90
18880;DHT22;9572;52.378;13.404;2023-05-08T05:20:47;7.00;99.90
18880;DHT22;9572;52.378;13.404;2023-05-08T05:23:14;7.20;99.90
18880;DHT22;9572;52.378;13.404;2023-05-08T05:25:41;7.30;99.90
18880;DHT22;9572;52.378;13.404;2023-05-08T05:28:08;7.40;99.90
18880;DHT22;9572;52.378;13.404;2023-05-08T05:30:35;7.60;99.90
18880;DHT22;9572;52.378;13.404;2023-05-08T05:33:01;7.70;99.90
18880;DHT22;9572;52.378;13.404;2023-05-08T05:35:29;7.90;99.90
18880;DHT22;9572;52.378;13.404;2023-05-08T05:37:57;8.20;99.90
18880;DHT22;9572;52.378;13.404;2023-05-08T05:40:24;8.40;99.90
18880;DHT22;9572;52.378;13.404;2023-05-08T05:42:50;8.60;99.90
18880;DHT22;9572;52.378;13.404;2023-05-08T05:45:17;8.90;99.90
18880;DHT22;9572;52.378;13.404;2023-05-08T05:47:45;9.10;99.90
18880;DHT22;9572;52.378;13.404;2023-05-08T05:50:15;9.40;99.90
18880;DHT22;9572;52.378;13.404;2023-05-08T05:52:43;9.50;99.90
18880;DHT22;9572;52.378;13.404;2023-05-08T05:55:11;9.70;99.90
18880;DHT22;9572;52.378;13.404;2023-05-08T05:57:38;9.90;99.90
18880;DHT22;9572;52.378;13.404;2023-05-08T06:00:06;10.10;99.90
18880;DHT22;9572;52.378;13.404;2023-05-08T06:02:35;10.40;99.90
18880;DHT22;9572;52.378;13.404;2023-05-08T06:05:02;10.60;99.90
18880;DHT22;9572;52.378;13.404;2023-05-08T06:07:29;10.70;99.90
18880;DHT22;9572;52.378;13.404;2023-05-08T06:09:56;10.90;99.90
18880;DHT22;9572;52.378;13.404;2023-05-08T06:12:24;10.90;99.90
18880;DHT22;9572;52.378;13.404;2023-05-08T06:14:52;11.20;99.90
18880;DHT22;9572;52.378;13.404;2023-05-08T06:17:19;11.60;99.90
18880;DHT22;9572;52.378;13.404;2023-05-08T06:19:47;11.70;99.90
18880;DHT22;9572;52.378;13.404;2023-05-08T06:22:15;11.80;99.90
18880;DHT22;9572;52.378;13.404;2023-05-08T06:24:43;12.10;99.90
18880;DHT22;9572;52.378;13.404;2023-05-08T06:27:10;12.20;99.90
18880;DHT22;9572;52.378;13.404;2023-05-08T06:29:38;12.20;99.90
18880;DHT22;9572;52.378;13.404;2023-05-08T06:32:05;12.30;99.90
18880;DHT22;9572;52.378;13.404;2023-05-08T06:34:32;12.60;99.90
18880;DHT22;9572;52.378;13.404;2023-05-08T06:36:59;12.70;99.90
18880;DHT22;9572;52.378;13.404;2023-05-08T06:39:26;12.70;99.90
18880;DHT22;9572;52.378;13.404;2023-05-08T06:41:53;12.70;99.90
18880;DHT22;9572;52.378;13.404;2023-05-08T06:44:20;12.90;99.90
18880;DHT22;9572;52.378;13.404;2023-05-08T06:46:48;13.10;99.90
18880;DHT22;9572;52.378;13.404;2023-05-08T06:49:15;13.20;99.90
18880;DHT22;9572;52.378;13.404;2023-05-08T06:51:42;13.30;99.90
18880;DHT22;9572;52.378;13.404;2023-05-08T06:54:10;13.30;99.90
18880;DHT22;9572;52.378;13.404;2023-05-08T06:56:37;13.50;99.90
18880;DHT22;9572;52.378;13.404;2023-05-08T06:59:03;13.50;99.90
18880;DHT22;9572;52.378;13.404;2023-05-08T07:01:31;13.50;99.90
18880;DHT22;9572;52.378;13.404;2023-05-08T07:03:59;13.70;99.90
18880;DHT22;9572;52.378;13.404;2023-05-08T07:06:26;13.80;99.90
18880;DHT22;9572;52.378;13.404;2023-05-08T07:08:53;14.00;99.90
18880;DHT22;9572;52.378;13.404;2023-05-08T07:11:20;14.10;99.90
18880;DHT22;9572;52.378;13.404;2023-05-08T07:13:47;14.20;99.90
18880;DHT22;9572;52.378;13.404;2023-05-08T07:16:14;14.30;99.90
18880;DHT22;9572;52.378;13.404;2023-05-08T07:18:41;14.50;99.90
18880;DHT22;9572;52.378;13.404;2023-05-08T07:21:09;14.80;99.90
18880;DHT22;9572;52.378;13.404;2023-05-08T07:23:36;14.80;99.90
18880;DHT22;9572;52.378;13.404;2023-05-08T07:26:03;14.80;99.90
18880;DHT22;9572;52.378;13.404;2023-05-08T07:28:30;14.90;99.90
18880;DHT22;9572;52.378;13.404;2023-05-08T07:30:57;15.00;99.90
18880;DHT22;9572;52.378;13.404;2023-05-08T07:33:24;15.20;99.90
18880;DHT22;9572;52.378;13.404;2023-05-08T07:35:51;15.50;99.90
18880;DHT22;9572;52.378;13.404;2023-05-08T07:38:19;15.80;99.90
18880;DHT22;9572;52.378;13.404;2023-05-08T07:40:46;16.00;99.90
18880;DHT22;9572;52.378;13.404;2023-05-08T07:43:13;16.30;99.90
18880;DHT22;9572;52.378;13.404;2023-05-08T07:45:40;16.50;99.90
18880;DHT22;9572;52.378;13.404;2023-05-08T07:48:07;16.40;99.90
18880;DHT22;9572;52.378;13.404;2023-05-08T07:50:34;16.30;99.90
18880;DHT22;9572;52.378;13.404;2023-05-08T07:53:01;16.40;99.90
18880;DHT22;9572;52.378;13.404;2023-05-08T07:55:30;16.60;99.90
18880;DHT22;9572;52.378;13.404;2023-05-08T07:57:56;16.80;99.90
18880;DHT22;9572;52.378;13.404;2023-05-08T08:00:23;17.00;99.90
18880;DHT22;9572;52.378;13.404;2023-05-08T08:02:51;17.10;99.90
18880;DHT22;9572;52.378;13.404;2023-05-08T08:05:19;17.00;99.90
18880;DHT22;9572;52.378;13.404;2023-05-08T08:07:46;17.10;99.90
18880;DHT22;9572;52.378;13.404;2023-05-08T08:10:12;17.00;99.90
18880;DHT22;9572;52.378;13.404;2023-05-08T08:12:41;17.00;99.90
18880;DHT22;9572;52.378;13.404;2023-05-08T08:15:08;17.10;99.90
18880;DHT22;9572;52.378;13.404;2023-05-08T08:17:35;17.20;99.90
18880;DHT22;9572;52.378;13.404;2023-05-08T08:20:02;17.30;99.90
18880;DHT22;9572;52.378;13.404;2023-05-08T08:22:29;17.30;99.90
18880;DHT22;9572;52.378;13.404;2023-05-08T08:24:56;17.30;99.90
18880;DHT22;9572;52.378;13.404;2023-05-08T08:27:23;17.60;99.90
18880;DHT22;9572;52.378;13.404;2023-05-08T08:29:51;17.60;99.90
18880;DHT22;9572;52.378;13.404;2023-05-08T08:32:18;17.70;99.90
18880;DHT22;9572;52.378;13.404;2023-05-08T08:34:45;17.90;99.90
18880;DHT22;9572;52.378;13.404;2023-05-08T08:37:12;18.20;99.90
18880;DHT22;9572;52.378;13.404;2023-05-08T08:39:39;18.30;99.90
18880;DHT22;9572;52.378;13.404;2023-05-08T08:42:06;18.40;99.90
18880;DHT22;9572;52.378;13.404;2023-05-08T08:44:33;18.50;99.90
18880;DHT22;9572;52.378;13.404;2023-05-08T08:47:01;18.40;99.90
18880;DHT22;9572;52.378;13.404;2023-05-08T08:49:33;18.50;99.90
18880;DHT22;9572;52.378;13.404;2023-05-08T08:52:02;18.70;99.90
18880;DHT22;9572;52.378;13.404;2023-05-08T08:54:33;18.80;99.90
18880;DHT22;9572;52.378;13.404;2023-05-08T08:57:04;18.90;99.90
18880;DHT22;9572;52.378;13.404;2023-05-08T08:59:32;18.90;99.90
18880;DHT22;9572;52.378;13.404;2023-05-08T09:02:06;19.10;99.90
18880;DHT22;9572;52.378;13.404;2023-05-08T09:04:34;19.30;99.90
18880;DHT22;9572;52.378;13.404;2023-05-08T09:07:01;19.40;99.90
18880;DHT22;9572;52.378;13.404;2023-05-08T09:09:30;19.50;99.90
18880;DHT22;9572;52.378;13.404;2023-05-08T09:11:58;19.60;99.90
18880;DHT22;9572;52.378;13.404;2023-05-08T09:14:25;19.80;99.90
18880;DHT22;9572;52.378;13.404;2023-05-08T09:16:52;19.90;99.90
18880;DHT22;9572;52.378;13.404;2023-05-08T09:19:21;20.10;99.90
18880;DHT22;9572;52.378;13.404;2023-05-08T09:21:48;20.10;99.90
18880;DHT22;9572;52.378;13.404;2023-05-08T09:24:15;20.10;99.90
18880;DHT22;9572;52.378;13.404;2023-05-08T09:26:42;20.20;99.90
18880;DHT22;9572;52.378;13.404;2023-05-08T09:29:14;20.20;99.90
18880;DHT22;9572;52.378;13.404;2023-05-08T09:31:42;20.40;99.90
18880;DHT22;9572;52.378;13.404;2023-05-08T09:34:10;20.50;99.90
18880;DHT22;9572;52.378;13.404;2023-05-08T09:36:39;20.50;99.90
18880;DHT22;9572;52.378;13.404;2023-05-08T09:39:10;20.70;99.90
18880;DHT22;9572;52.378;13.404;2023-05-08T09:41:38;20.90;99.30
18880;DHT22;9572;52.378;13.404;2023-05-08T09:44:06;20.90;98.90
18880;DHT22;9572;52.378;13.404;2023-05-08T09:46:33;20.90;98.80
18880;DHT22;9572;52.378;13.404;2023-05-08T09:49:02;21.30;99.20
18880;DHT22;9572;52.378;13.404;2023-05-08T09:51:30;21.20;99.90
18880;DHT22;9572;52.378;13.404;2023-05-08T09:53:58;21.50;99.00
18880;DHT22;9572;52.378;13.404;2023-05-08T09:56:33;21.70;98.10
18880;DHT22;9572;52.378;13.404;2023-05-08T09:59:01;21.90;98.10
18880;DHT22;9572;52.378;13.404;2023-05-08T10:01:30;22.00;97.50
18880;DHT22;9572;52.378;13.404;2023-05-08T10:03:58;22.20;97.10
18880;DHT22;9572;52.378;13.404;2023-05-08T10:06:26;22.30;96.10
18880;DHT22;9572;52.378;13.404;2023-05-08T10:09:12;22.30;94.60
18880;DHT22;9572;52.378;13.404;2023-05-08T10:11:39;22.20;96.60
18880;DHT22;9572;52.378;13.404;2023-05-08T10:14:07;21.90;95.80
18880;DHT22;9572;52.378;13.404;2023-05-08T10:16:38;21.80;94.00
18880;DHT22;9572;52.378;13.404;2023-05-08T10:19:11;21.90;95.00
18880;DHT22;9572;52.378;13.404;2023-05-08T10:21:40;22.00;95.20
18880;DHT22;9572;52.378;13.404;2023-05-08T10:24:13;22.20;94.70
18880;DHT22;9572;52.378;13.404;2023-05-08T10:26:43;22.40;93.90
18880;DHT22;9572;52.378;13.404;2023-05-08T10:29:16;22.40;93.10
18880;DHT22;9572;52.378;13.404;2023-05-08T10:31:45;22.50;95.00
18880;DHT22;9572;52.378;13.404;2023-05-08T10:34:18;22.80;94.50
18880;DHT22;9572;52.378;13.404;2023-05-08T10:36:45;23.00;93.40
18880;DHT22;9572;52.378;13.404;2023-05-08T10:39:14;23.20;93.40
18880;DHT22;9572;52.378;13.404;2023-05-08T10:41:42;23.20;92.80
18880;DHT22;9572;52.378;13.404;2023-05-08T10:44:09;23.40;92.60
18880;DHT22;9572;52.378;13.404;2023-05-08T10:46:42;23.10;93.70
18880;DHT22;9572;52.378;13.404;2023-05-08T10:49:18;22.80;92.10
18880;DHT22;9572;52.378;13.404;2023-05-08T10:51:52;22.70;93.20
18880;DHT22;9572;52.378;13.404;2023-05-08T10:54:33;23.00;92.70
18880;DHT22;9572;52.378;13.404;2023-05-08T10:57:08;22.90;91.30
18880;DHT22;9572;52.378;13.404;2023-05-08T10:59:35;22.40;92.60
18880;DHT22;9572;52.378;13.404;2023-05-08T11:02:05;22.30;91.70
18880;DHT22;9572;52.378;13.404;2023-05-08T11:04:33;22.70;92.60
18880;DHT22;9572;52.378;13.404;2023-05-08T11:07:00;22.90;91.90
18880;DHT22;9572;52.378;13.404;2023-05-08T11:09:44;23.00;91.00
18880;DHT22;9572;52.378;13.404;2023-05-08T11:12:20;23.30;91.20
18880;DHT22;9572;52.378;13.404;2023-05-08T11:14:56;23.40;91.20
18880;DHT22;9572;52.378;13.404;2023-05-08T11:17:25;23.00;90.10
18880;DHT22;9572;52.378;13.404;2023-05-08T11:19:57;22.80;90.60
18880;DHT22;9572;52.378;13.404;2023-05-08T11:22:26;22.80;90.10
18880;DHT22;9572;52.378;13.404;2023-05-08T11:25:03;23.00;90.60
18880;DHT22;9572;52.378;13.404;2023-05-08T11:27:32;23.20;90.10
18880;DHT22;9572;52.378;13.404;2023-05-08T11:30:22;23.20;91.10
18880;DHT22;9572;52.378;13.404;2023-05-08T11:33:12;22.80;91.10
18880;DHT22;9572;52.378;13.404;2023-05-08T11:35:41;23.10;92.40
18880;DHT22;9572;52.378;13.404;2023-05-08T11:38:19;23.50;91.40
18880;DHT22;9572;52.378;13.404;2023-05-08T11:40:59;23.60;89.60
18880;DHT22;9572;52.378;13.404;2023-05-08T11:43:53;23.40;91.00
18880;DHT22;9572;52.378;13.404;2023-05-08T11:46:34;23.60;90.30
18880;DHT22;9572;52.378;13.404;2023-05-08T11:49:03;23.20;88.10
18880;DHT22;9572;52.378;13.404;2023-05-08T11:51:31;23.20;88.50
18880;DHT22;9572;52.378;13.404;2023-05-08T11:53:58;23.00;86.00
18880;DHT22;9572;52.378;13.404;2023-05-08T11:56:27;22.90;88.60
18880;DHT22;9572;52.378;13.404;2023-05-08T11:59:01;22.80;88.90
18880;DHT22;9572;52.378;13.404;2023-05-08T12:01:29;23.00;89.60
18880;DHT22;9572;52.378;13.404;2023-05-08T12:04:00;23.00;89.00
18880;DHT22;9572;52.378;13.404;2023-05-08T12:06:27;22.70;88.00
18880;DHT22;9572;52.378;13.404;2023-05-08T12:08:54;22.60;89.10
18880;DHT22;9572;52.378;13.404;2023-05-08T12:11:24;22.20;86.50
18880;DHT22;9572;52.378;13.404;2023-05-08T12:13:53;22.00;87.70
18880;DHT22;9572;52.378;13.404;2023-05-08T12:16:22;22.20;90.70
18880;DHT22;9572;52.378;13.404;2023-05-08T12:18:50;22.50;91.50
18880;DHT22;9572;52.378;13.404;2023-05-08T12:21:18;22.30;89.60
18880;DHT22;9572;52.378;13.404;2023-05-08T12:23:45;22.50;89.70
18880;DHT22;9572;52.378;13.404;2023-05-08T12:26:13;22.60;90.10
18880;DHT22;9572;52.378;13.404;2023-05-08T12:28:43;22.70;87.50
18880;DHT22;9572;52.378;13.404;2023-05-08T12:31:12;22.50;90.80
18880;DHT22;9572;52.378;13.404;2023-05-08T12:33:39;22.30;87.90
18880;DHT22;9572;52.378;13.404;2023-05-08T12:36:07;22.00;90.30
18880;DHT22;9572;52.378;13.404;2023-05-08T12:38:34;22.00;88.80
18880;DHT22;9572;52.378;13.404;2023-05-08T12:41:01;22.10;88.50
18880;DHT22;9572;52.378;13.404;2023-05-08T12:43:32;22.00;85.50
18880;DHT22;9572;52.378;13.404;2023-05-08T12:46:00;21.70;85.80
18880;DHT22;9572;52.378;13.404;2023-05-08T12:48:29;21.70;88.40
18880;DHT22;9572;52.378;13.404;2023-05-08T12:51:01;21.90;90.30
18880;DHT22;9572;52.378;13.404;2023-05-08T12:53:29;22.00;90.20
18880;DHT22;9572;52.378;13.404;2023-05-08T12:55:59;22.10;87.70
18880;DHT22;9572;52.378;13.404;2023-05-08T12:58:28;22.20;90.00
18880;DHT22;9572;52.378;13.404;2023-05-08T13:01:07;22.10;86.40
18880;DHT22;9572;52.378;13.404;2023-05-08T13:03:39;22.20;86.90
18880;DHT22;9572;52.378;13.404;2023-05-08T13:06:06;22.20;87.70
18880;DHT22;9572;52.378;13.404;2023-05-08T13:08:44;22.00;84.80
18880;DHT22;9572;52.378;13.404;2023-05-08T13:11:11;21.70;86.50
18880;DHT22;9572;52.378;13.404;2023-05-08T13:13:37;21.80;87.70
18880;DHT22;9572;52.378;13.404;2023-05-08T13:16:06;21.80;88.10
18880;DHT22;9572;52.378;13.404;2023-05-08T13:18:33;21.60;89.50
18880;DHT22;9572;52.378;13.404;2023-05-08T13:21:02;21.70;88.30
18880;DHT22;9572;52.378;13.404;2023-05-08T13:23:29;21.60;85.00
18880;DHT22;9572;52.378;13.404;2023-05-08T13:25:56;21.70;89.40
18880;DHT22;9572;52.378;13.404;2023-05-08T13:28:23;21.80;89.60
18880;DHT22;9572;52.378;13.404;2023-05-08T13:30:50;21.90;86.70
18880;DHT22;9572;52.378;13.404;2023-05-08T13:33:17;21.90;84.90
18880;DHT22;9572;52.378;13.404;2023-05-08T13:35:44;21.70;90.00
18880;DHT22;9572;52.378;13.404;2023-05-08T13:38:12;21.50;85.70
18880;DHT22;9572;52.378;13.404;2023-05-08T13:40:39;21.40;88.10
18880;DHT22;9572;52.378;13.404;2023-05-08T13:43:06;21.60;89.10
18880;DHT22;9572;52.378;13.404;2023-05-08T13:45:32;21.60;89.60
18880;DHT22;9572;52.378;13.404;2023-05-08T13:47:59;21.50;87.70
18880;DHT22;9572;52.378;13.404;2023-05-08T13:50:26;21.30;87.70
18880;DHT22;9572;52.378;13.404;2023-05-08T13:52:53;21.40;86.30
18880;DHT22;9572;52.378;13.404;2023-05-08T13:55:22;21.10;87.40
18880;DHT22;9572;52.378;13.404;2023-05-08T13:57:49;21.20;88.10
18880;DHT22;9572;52.378;13.404;2023-05-08T14:00:16;21.30;88.10
18880;DHT22;9572;52.378;13.404;2023-05-08T14:02:43;21.50;87.80
18880;DHT22;9572;52.378;13.404;2023-05-08T14:05:10;21.50;87.80
18880;DHT22;9572;52.378;13.404;2023-05-08T14:07:37;21.60;87.70
18880;DHT22;9572;52.378;13.404;2023-05-08T14:10:05;21.40;85.50
18880;DHT22;9572;52.378;13.404;2023-05-08T14:12:34;21.50;84.40
18880;DHT22;9572;52.378;13.404;2023-05-08T14:15:02;21.40;84.70
18880;DHT22;9572;52.378;13.404;2023-05-08T14:17:29;21.40;86.30
18880;DHT22;9572;52.378;13.404;2023-05-08T14:19:56;21.40;86.70
18880;DHT22;9572;52.378;13.404;2023-05-08T14:22:23;21.40;87.50
18880;DHT22;9572;52.378;13.404;2023-05-08T14:24:50;21.30;87.40
18880;DHT22;9572;52.378;13.404;2023-05-08T14:27:17;21.30;87.80
18880;DHT22;9572;52.378;13.404;2023-05-08T14:29:46;21.20;84.60
18880;DHT22;9572;52.378;13.404;2023-05-08T14:32:12;21.20;86.90
18880;DHT22;9572;52.378;13.404;2023-05-08T14:34:39;21.20;85.10
18880;DHT22;9572;52.378;13.404;2023-05-08T14:37:06;21.20;87.80
18880;DHT22;9572;52.378;13.404;2023-05-08T14:39:33;21.10;89.50
18880;DHT22;9572;52.378;13.404;2023-05-08T14:42:00;21.00;85.10
18880;DHT22;9572;52.378;13.404;2023-05-08T14:44:27;21.10;88.00
18880;DHT22;9572;52.378;13.404;2023-05-08T14:46:56;21.00;88.90
18880;DHT22;9572;52.378;13.404;2023-05-08T14:49:22;20.90;86.30
18880;DHT22;9572;52.378;13.404;2023-05-08T14:51:49;20.90;85.80
18880;DHT22;9572;52.378;13.404;2023-05-08T14:54:16;20.80;86.50
18880;DHT22;9572;52.378;13.404;2023-05-08T14:56:43;20.90;87.10
18880;DHT22;9572;52.378;13.404;2023-05-08T14:59:10;20.80;87.20
18880;DHT22;9572;52.378;13.404;2023-05-08T15:01:37;20.70;85.90
18880;DHT22;9572;52.378;13.404;2023-05-08T15:04:09;20.40;85.80
18880;DHT22;9572;52.378;13.404;2023-05-08T15:06:36;20.40;88.00
18880;DHT22;9572;52.378;13.404;2023-05-08T15:09:05;20.30;89.30
18880;DHT22;9572;52.378;13.404;2023-05-08T15:11:32;20.10;87.80
18880;DHT22;9572;52.378;13.404;2023-05-08T15:14:00;20.00;88.50
18880;DHT22;9572;52.378;13.404;2023-05-08T15:16:27;19.90;86.80
18880;DHT22;9572;52.378;13.404;2023-05-08T15:18:54;19.80;88.10
18880;DHT22;9572;52.378;13.404;2023-05-08T15:21:22;19.70;89.90
18880;DHT22;9572;52.378;13.404;2023-05-08T15:23:51;19.70;88.80
18880;DHT22;9572;52.378;13.404;2023-05-08T15:26:18;19.70;90.30
18880;DHT22;9572;52.378;13.404;2023-05-08T15:28:45;19.60;89.40
18880;DHT22;9572;52.378;13.404;2023-05-08T15:31:12;19.50;87.70
18880;DHT22;9572;52.378;13.404;2023-05-08T15:33:39;19.50;87.40
18880;DHT22;9572;52.378;13.404;2023-05-08T15:36:09;19.50;88.60
18880;DHT22;9572;52.378;13.404;2023-05-08T15:38:38;19.50;88.20
18880;DHT22;9572;52.378;13.404;2023-05-08T15:41:05;19.30;87.00
18880;DHT22;9572;52.378;13.404;2023-05-08T15:43:32;19.30;88.80
18880;DHT22;9572;52.378;13.404;2023-05-08T15:45:59;19.20;88.80
18880;DHT22;9572;52.378;13.404;2023-05-08T15:48:26;19.00;90.40
18880;DHT22;9572;52.378;13.404;2023-05-08T15:50:52;19.00;90.20
18880;DHT22;9572;52.378;13.404;2023-05-08T15:53:20;18.90;90.30
18880;DHT22;9572;52.378;13.404;2023-05-08T15:55:48;18.80;90.70